createdAt,value
2023-05-21T00:00:56.990Z,5.87
2023-05-21T00:04:00.003Z,5.85
2023-05-21T00:07:02.521Z,5.90
2023-05-21T00:10:05.525Z,5.78
2023-05-21T00:13:09.176Z,5.57
2023-05-21T00:16:11.735Z,5.57
2023-05-21T00:19:14.289Z,5.68
2023-05-21T00:22:16.989Z,6.18
2023-05-21T00:25:19.416Z,5.97
2023-05-21T00:28:21.939Z,5.55
2023-05-21T00:31:24.481Z,6.10
2023-05-21T00:34:27.398Z,6.07
2023-05-21T00:37:33.020Z,6.15
2023-05-21T00:40:41.328Z,5.70
2023-05-21T00:43:44.709Z,6.38
2023-05-21T00:46:49.020Z,6.47
2023-05-21T00:49:53.409Z,5.93
2023-05-21T00:52:56.093Z,5.88
2023-05-21T00:55:58.526Z,5.90
2023-05-21T00:59:05.594Z,5.40
2023-05-21T01:02:09.626Z,6.30
2023-05-21T01:05:12.181Z,6.10
2023-05-21T01:08:15.104Z,7.28
2023-05-21T01:11:17.888Z,5.90
2023-05-21T01:14:20.262Z,6.00
2023-05-21T01:17:24.514Z,6.33
2023-05-21T01:20:27.490Z,6.68
2023-05-21T01:23:30.648Z,6.10
2023-05-21T01:26:33.926Z,6.10
2023-05-21T01:29:36.367Z,5.70
2023-05-21T01:32:59.296Z,5.87
2023-05-21T01:36:16.095Z,6.20
2023-05-21T01:39:24.126Z,6.22
2023-05-21T01:42:26.530Z,6.22
2023-05-21T01:45:29.622Z,5.75
2023-05-21T01:48:32.046Z,6.63
2023-05-21T01:51:34.664Z,6.32
2023-05-21T01:54:37.033Z,5.75
2023-05-21T01:57:39.402Z,6.78
2023-05-21T02:00:41.991Z,5.97
2023-05-21T02:03:44.875Z,6.07
2023-05-21T02:06:47.381Z,5.88
2023-05-21T02:09:49.739Z,5.30
2023-05-21T02:12:53.120Z,5.72
2023-05-21T02:15:56.360Z,5.88
2023-05-21T02:19:00.772Z,6.30
2023-05-21T02:22:03.242Z,5.97
2023-05-21T02:25:07.536Z,6.00
2023-05-21T02:28:09.900Z,6.53
2023-05-21T02:31:12.772Z,6.00
2023-05-21T02:34:15.198Z,5.80
2023-05-21T02:37:17.794Z,6.10
2023-05-21T02:40:20.399Z,5.90
2023-05-21T02:43:22.876Z,6.97
2023-05-21T02:46:25.313Z,6.30
2023-05-21T02:49:28.546Z,6.83
2023-05-21T02:52:31.078Z,6.85
2023-05-21T02:55:33.705Z,6.82
2023-05-21T02:58:37.212Z,6.28
2023-05-21T03:01:41.410Z,6.47
2023-05-21T03:04:48.581Z,6.30
2023-05-21T03:07:51.475Z,5.95
2023-05-21T03:10:53.971Z,6.63
2023-05-21T03:13:56.386Z,6.50
2023-05-21T03:16:58.814Z,6.90
2023-05-21T03:20:01.248Z,6.80
2023-05-21T03:23:04.475Z,5.75
2023-05-21T03:26:07.119Z,6.32
2023-05-21T03:29:09.586Z,7.05
2023-05-21T03:32:13.037Z,6.43
2023-05-21T03:35:15.873Z,6.57
2023-05-21T03:38:18.546Z,6.32
2023-05-21T03:41:21.324Z,6.38
2023-05-21T03:44:28.168Z,6.38
2023-05-21T03:47:43.144Z,6.35
2023-05-21T03:50:46.344Z,7.60
2023-05-21T03:53:50.931Z,6.75
2023-05-21T03:56:53.641Z,6.70
2023-05-21T03:59:58.969Z,6.82
2023-05-21T04:03:01.743Z,6.93
2023-05-21T04:06:04.516Z,6.90
2023-05-21T04:09:07.153Z,7.40
2023-05-21T04:12:09.534Z,6.57
2023-05-21T04:15:12.617Z,7.30
2023-05-21T04:18:17.834Z,7.18
2023-05-21T04:21:20.740Z,6.87
2023-05-21T04:24:23.541Z,6.78
2023-05-21T04:27:37.142Z,6.82
2023-05-21T04:30:39.658Z,7.05
2023-05-21T04:33:42.325Z,6.95
2023-05-21T04:36:45.609Z,6.27
2023-05-21T04:39:48.950Z,7.40
2023-05-21T04:42:51.486Z,6.78
2023-05-21T04:45:56.781Z,6.95
2023-05-21T04:49:03.091Z,6.43
2023-05-21T04:52:05.570Z,7.00
2023-05-21T04:55:09.026Z,7.03
2023-05-21T04:58:11.521Z,6.63
2023-05-21T05:01:17.595Z,7.18
2023-05-21T05:04:21.533Z,7.18
2023-05-21T05:07:24.339Z,6.53
2023-05-21T05:10:27.736Z,7.78
2023-05-21T05:13:31.132Z,6.53
2023-05-21T05:16:34.327Z,7.70
2023-05-21T05:19:36.993Z,7.80
2023-05-21T05:22:39.449Z,8.50
2023-05-21T05:25:41.881Z,6.70
2023-05-21T05:28:45.983Z,6.97
2023-05-21T05:31:48.462Z,7.82
2023-05-21T05:34:51.470Z,7.35
2023-05-21T05:37:53.893Z,6.97
2023-05-21T05:40:56.349Z,7.03
2023-05-21T05:43:58.718Z,7.70
2023-05-21T05:47:09.247Z,7.43
2023-05-21T05:50:11.877Z,7.18
2023-05-21T05:53:14.780Z,7.70
2023-05-21T05:56:17.325Z,7.13
2023-05-21T05:59:20.433Z,7.35
2023-05-21T06:02:25.620Z,7.55
2023-05-21T06:05:29.316Z,6.97
2023-05-21T06:08:36.699Z,7.07
2023-05-21T06:11:40.661Z,8.35
2023-05-21T06:14:45.125Z,7.63
2023-05-21T06:17:48.050Z,6.63
2023-05-21T06:20:51.142Z,7.30
2023-05-21T06:23:55.603Z,7.10
2023-05-21T06:26:58.075Z,7.47
2023-05-21T06:30:00.820Z,7.78
2023-05-21T06:33:03.462Z,8.00
2023-05-21T06:36:06.536Z,7.72
2023-05-21T06:39:09.048Z,7.63
2023-05-21T06:42:11.617Z,7.75
2023-05-21T06:45:20.082Z,7.97
2023-05-21T06:48:22.518Z,7.60
2023-05-21T06:51:24.903Z,7.38
2023-05-21T06:54:27.362Z,7.10
2023-05-21T06:57:30.407Z,8.88
2023-05-21T07:00:33.297Z,8.23
2023-05-21T07:03:36.477Z,7.75
2023-05-21T07:06:39.134Z,7.35
2023-05-21T07:09:41.789Z,7.03
2023-05-21T07:12:44.592Z,7.22
2023-05-21T07:15:47.203Z,7.65
2023-05-21T07:18:50.003Z,6.93
2023-05-21T07:21:52.503Z,7.03
2023-05-21T07:24:54.956Z,7.47
2023-05-21T07:27:57.385Z,7.25
2023-05-21T07:31:00.020Z,7.30
2023-05-21T07:34:08.318Z,7.47
2023-05-21T07:37:10.825Z,7.22
2023-05-21T07:40:13.758Z,7.23
2023-05-21T07:43:18.185Z,7.82
2023-05-21T07:46:20.872Z,6.63
2023-05-21T07:49:26.899Z,7.80
2023-05-21T07:52:29.500Z,6.82
2023-05-21T07:55:32.259Z,7.40
2023-05-21T07:58:35.306Z,6.90
2023-05-21T08:01:38.298Z,7.13
2023-05-21T08:04:41.457Z,7.82
2023-05-21T08:07:46.409Z,8.02
2023-05-21T08:10:49.318Z,7.43
2023-05-21T08:13:52.411Z,7.28
2023-05-21T08:16:55.013Z,7.53
2023-05-21T08:19:57.801Z,7.50
2023-05-21T08:23:02.945Z,7.40
2023-05-21T08:26:12.989Z,7.47
2023-05-21T08:29:16.432Z,7.10
2023-05-21T08:32:18.889Z,6.93
2023-05-21T08:35:21.538Z,7.63
2023-05-21T08:38:34.804Z,7.10
2023-05-21T08:41:52.076Z,7.03
2023-05-21T08:44:54.512Z,7.85
2023-05-21T08:47:57.655Z,7.00
2023-05-21T08:51:02.059Z,6.63
2023-05-21T08:54:08.612Z,6.45
2023-05-21T08:57:11.139Z,6.37
2023-05-21T09:00:15.113Z,6.60
2023-05-21T09:03:18.097Z,5.78
2023-05-21T09:06:21.650Z,6.35
2023-05-21T09:09:28.255Z,6.93
2023-05-21T09:12:31.009Z,6.47
2023-05-21T09:15:34.995Z,6.55
2023-05-21T09:18:37.563Z,6.40
2023-05-21T09:21:46.863Z,6.95
2023-05-21T09:24:52.927Z,5.97
2023-05-21T09:27:56.291Z,5.57
2023-05-21T09:30:59.433Z,5.97
2023-05-21T09:34:02.719Z,6.30
2023-05-21T09:37:23.602Z,6.40
2023-05-21T09:40:30.820Z,6.50
2023-05-21T09:43:33.300Z,6.63
2023-05-21T09:46:40.644Z,5.93
2023-05-21T09:49:44.137Z,5.75
2023-05-21T09:52:46.787Z,5.40
2023-05-21T09:55:50.730Z,6.30
2023-05-21T09:58:57.190Z,6.47
2023-05-21T10:01:59.938Z,5.88
2023-05-21T10:05:02.569Z,6.03
2023-05-21T10:08:05.257Z,6.93
2023-05-21T10:11:07.671Z,6.05
2023-05-21T10:14:15.495Z,6.00
2023-05-21T10:17:18.081Z,5.88
2023-05-21T10:20:20.952Z,6.00
2023-05-21T10:23:23.867Z,5.32
2023-05-21T10:26:26.518Z,5.95
2023-05-21T10:29:28.914Z,6.03
2023-05-21T10:32:31.851Z,6.50
2023-05-21T10:35:34.696Z,5.30
2023-05-21T10:38:37.701Z,6.07
2023-05-21T10:41:50.830Z,6.10
2023-05-21T10:45:12.840Z,5.47
2023-05-21T10:48:20.918Z,6.55
2023-05-21T10:51:30.686Z,6.55
2023-05-21T10:55:02.111Z,6.75
2023-05-21T10:58:56.689Z,6.03
2023-05-21T11:01:59.136Z,6.70
2023-05-21T11:05:01.754Z,6.40
2023-05-21T11:08:04.415Z,6.47
2023-05-21T11:11:06.899Z,6.93
2023-05-21T11:14:40.596Z,6.22
2023-05-21T11:17:44.654Z,6.67
2023-05-21T11:20:51.396Z,6.10
2023-05-21T11:23:55.587Z,6.43
2023-05-21T11:26:58.701Z,6.80
2023-05-21T11:30:04.218Z,6.85
2023-05-21T11:33:12.352Z,6.20
2023-05-21T11:36:14.834Z,5.82
2023-05-21T11:39:22.095Z,5.85
2023-05-21T11:42:31.058Z,6.15
2023-05-21T11:45:33.523Z,6.57
2023-05-21T11:48:36.144Z,5.63
2023-05-21T11:51:39.809Z,6.20
2023-05-21T11:54:50.884Z,5.70
2023-05-21T11:57:53.969Z,5.85
2023-05-21T12:00:56.444Z,6.05
2023-05-21T12:03:58.862Z,6.33
2023-05-21T12:07:04.146Z,6.30
2023-05-21T12:10:07.254Z,6.35
2023-05-21T12:13:10.015Z,5.78
2023-05-21T12:16:12.648Z,5.75
2023-05-21T12:19:17.772Z,6.07
2023-05-21T12:22:20.365Z,5.97
2023-05-21T12:25:22.848Z,5.82
2023-05-21T12:28:25.247Z,6.32
2023-05-21T12:31:30.192Z,5.82
2023-05-21T12:34:48.803Z,5.53
2023-05-21T12:37:51.273Z,5.40
2023-05-21T12:40:53.675Z,5.88
2023-05-21T12:43:56.029Z,5.80
2023-05-21T12:46:59.370Z,5.53
2023-05-21T12:50:02.625Z,5.80
2023-05-21T12:53:05.029Z,5.35
2023-05-21T12:56:11.499Z,5.30
2023-05-21T12:59:17.111Z,5.85
2023-05-21T13:02:26.818Z,5.55
2023-05-21T13:05:29.808Z,6.30
2023-05-21T13:08:34.469Z,5.60
2023-05-21T13:11:36.890Z,5.70
2023-05-21T13:14:39.496Z,5.63
2023-05-21T13:17:41.944Z,6.22
2023-05-21T13:20:44.350Z,6.10
2023-05-21T13:23:46.692Z,6.05
2023-05-21T13:26:49.176Z,6.20
2023-05-21T13:29:51.573Z,6.05
2023-05-21T13:32:54.228Z,5.68
2023-05-21T13:35:56.750Z,6.00
2023-05-21T13:38:59.126Z,5.85
2023-05-21T13:42:02.325Z,5.90
2023-05-21T13:45:08.841Z,5.40
2023-05-21T13:48:12.055Z,5.35
2023-05-21T13:51:22.468Z,5.40
2023-05-21T13:54:33.437Z,5.45
2023-05-21T13:57:35.820Z,5.45
2023-05-21T14:00:38.594Z,5.63
2023-05-21T14:03:41.327Z,5.65
2023-05-21T14:06:43.727Z,5.80
2023-05-21T14:09:47.797Z,5.63
2023-05-21T14:12:50.172Z,5.43
2023-05-21T14:15:52.567Z,6.18
2023-05-21T14:18:55.217Z,5.38
2023-05-21T14:21:57.793Z,5.13
2023-05-21T14:25:00.145Z,4.80
2023-05-21T14:28:02.538Z,5.28
2023-05-21T14:31:05.109Z,4.80
2023-05-21T14:34:08.824Z,5.55
2023-05-21T14:37:11.218Z,6.13
2023-05-21T14:40:14.057Z,5.60
2023-05-21T14:43:16.447Z,5.60
2023-05-21T14:46:18.951Z,5.00
2023-05-21T14:49:21.402Z,5.13
2023-05-21T14:52:23.752Z,6.10
2023-05-21T14:55:26.873Z,5.70
2023-05-21T14:58:29.271Z,5.35
2023-05-21T15:01:31.886Z,5.60
2023-05-21T15:04:34.331Z,5.50
2023-05-21T15:07:36.857Z,4.90
2023-05-21T15:10:39.262Z,5.85
2023-05-21T15:13:41.665Z,5.38
2023-05-21T15:16:44.308Z,5.88
2023-05-21T15:19:46.840Z,5.40
2023-05-21T15:22:49.249Z,5.93
2023-05-21T15:25:51.760Z,6.05
2023-05-21T15:28:54.131Z,5.47
2023-05-21T15:31:56.653Z,6.55
2023-05-21T15:34:59.192Z,5.85
2023-05-21T15:38:01.606Z,5.67
2023-05-21T15:41:03.937Z,6.07
2023-05-21T15:44:06.756Z,5.10
2023-05-21T15:47:09.196Z,5.15
2023-05-21T15:50:12.254Z,6.18
2023-05-21T15:53:14.619Z,5.20
2023-05-21T15:56:16.978Z,4.82
2023-05-21T15:59:19.325Z,4.60
2023-05-21T16:02:21.766Z,4.80
2023-05-21T16:05:24.183Z,4.50
2023-05-21T16:08:26.548Z,4.60
2023-05-21T16:11:28.980Z,5.03
2023-05-21T16:14:31.405Z,5.38
2023-05-21T16:17:33.823Z,4.90
2023-05-21T16:20:36.336Z,5.07
2023-05-21T16:23:38.943Z,5.17
2023-05-21T16:26:41.328Z,5.18
2023-05-21T16:29:43.743Z,5.10
2023-05-21T16:32:46.196Z,5.30
2023-05-21T16:35:48.636Z,5.28
2023-05-21T16:38:51.886Z,5.43
2023-05-21T16:41:55.931Z,5.30
2023-05-21T16:44:58.286Z,5.55
2023-05-21T16:48:00.761Z,5.00
2023-05-21T16:51:03.123Z,5.65
2023-05-21T16:54:06.419Z,6.40
2023-05-21T16:57:08.946Z,6.30
2023-05-21T17:00:11.837Z,6.07
2023-05-21T17:03:14.321Z,5.88
2023-05-21T17:06:16.765Z,5.47
2023-05-21T17:09:19.208Z,5.87
2023-05-21T17:12:21.659Z,5.68
2023-05-21T17:15:24.126Z,5.80
2023-05-21T17:18:26.487Z,5.43
2023-05-21T17:21:28.885Z,5.72
2023-05-21T17:24:31.377Z,6.33
2023-05-21T17:27:33.710Z,5.57
2023-05-21T17:30:36.264Z,6.05
2023-05-21T17:33:39.233Z,5.75
2023-05-21T17:36:41.606Z,6.57
2023-05-21T17:39:44.086Z,6.00
2023-05-21T17:42:46.493Z,5.40
2023-05-21T17:45:48.835Z,5.40
2023-05-21T17:48:51.448Z,5.10
2023-05-21T17:51:53.925Z,4.88
2023-05-21T17:54:56.375Z,5.13
2023-05-21T17:57:59.084Z,4.82
2023-05-21T18:01:01.572Z,4.53
2023-05-21T18:04:04.431Z,5.18
2023-05-21T18:07:07.372Z,4.95
2023-05-21T18:10:09.934Z,5.10
2023-05-21T18:13:12.346Z,4.70
2023-05-21T18:16:14.777Z,5.38
2023-05-21T18:19:17.258Z,5.80
2023-05-21T18:22:19.687Z,5.63
2023-05-21T18:25:22.141Z,5.80
2023-05-21T18:28:24.595Z,5.72
2023-05-21T18:31:27.113Z,8.00
2023-05-21T18:34:29.618Z,6.90
2023-05-21T18:37:32.050Z,6.30
2023-05-21T18:40:34.564Z,5.97
2023-05-21T18:43:37.234Z,5.60
2023-05-21T18:46:39.651Z,6.28
2023-05-21T18:49:42.143Z,6.20
2023-05-21T18:52:44.620Z,6.30
2023-05-21T18:55:47.126Z,6.20
2023-05-21T18:58:49.530Z,6.50
2023-05-21T19:01:52.015Z,6.57
2023-05-21T19:04:54.491Z,7.05
2023-05-21T19:07:59.268Z,6.13
2023-05-21T19:11:01.957Z,6.33
2023-05-21T19:14:04.587Z,6.30
2023-05-21T19:17:08.432Z,7.32
2023-05-21T19:20:10.961Z,7.28
2023-05-21T19:23:13.377Z,7.38
2023-05-21T19:26:15.813Z,6.80
2023-05-21T19:29:18.243Z,6.85
2023-05-21T19:32:21.324Z,6.68
2023-05-21T19:35:23.712Z,5.32
2023-05-21T19:38:26.115Z,6.18
2023-05-21T19:41:28.545Z,5.73
2023-05-21T19:44:31.186Z,6.22
2023-05-21T19:47:33.596Z,6.00
2023-05-21T19:50:36.325Z,5.80
2023-05-21T19:53:38.884Z,5.93
2023-05-21T19:56:41.586Z,6.30
2023-05-21T19:59:43.947Z,5.63
2023-05-21T20:02:46.821Z,6.10
2023-05-21T20:05:49.243Z,6.18
2023-05-21T20:08:51.896Z,6.22
2023-05-21T20:11:54.274Z,5.87
2023-05-21T20:14:56.977Z,6.25
2023-05-21T20:17:59.460Z,6.53
2023-05-21T20:21:06.175Z,6.90
2023-05-21T20:24:08.814Z,6.40
2023-05-21T20:27:11.230Z,6.60
2023-05-21T20:30:13.700Z,6.10
2023-05-21T20:33:16.089Z,6.80
2023-05-21T20:36:18.643Z,7.13
2023-05-21T20:39:22.998Z,7.20
2023-05-21T20:42:30.788Z,7.63
2023-05-21T20:45:33.613Z,7.57
2023-05-21T20:48:36.082Z,7.28
2023-05-21T20:51:38.499Z,6.90
2023-05-21T20:54:42.645Z,7.53
2023-05-21T20:57:45.033Z,7.17
2023-05-21T21:00:47.599Z,7.28
2023-05-21T21:03:50.228Z,6.53
2023-05-21T21:06:53.405Z,6.43
2023-05-21T21:09:55.791Z,6.40
2023-05-21T21:12:58.172Z,7.10
2023-05-21T21:16:00.694Z,6.45
2023-05-21T21:19:03.235Z,6.70
2023-05-21T21:22:05.673Z,6.78
2023-05-21T21:25:08.476Z,6.95
2023-05-21T21:28:11.054Z,6.80
2023-05-21T21:31:13.440Z,6.47
2023-05-21T21:34:16.116Z,6.10
2023-05-21T21:37:18.528Z,5.47
2023-05-21T21:40:21.258Z,5.47
2023-05-21T21:43:23.629Z,4.93
2023-05-21T21:46:26.546Z,4.85
2023-05-21T21:49:28.894Z,4.97
2023-05-21T21:52:32.601Z,5.00
2023-05-21T21:55:35.082Z,4.43
2023-05-21T21:58:37.714Z,4.87
2023-05-21T22:01:40.128Z,4.45
2023-05-21T22:04:43.723Z,4.47
2023-05-21T22:07:46.820Z,4.38
2023-05-21T22:10:49.290Z,4.38
2023-05-21T22:13:53.892Z,4.43
2023-05-21T22:16:56.261Z,4.28
2023-05-21T22:19:58.686Z,4.53
2023-05-21T22:23:01.169Z,4.90
2023-05-21T22:26:03.708Z,5.28
2023-05-21T22:29:06.204Z,5.67
2023-05-21T22:32:08.622Z,5.10
2023-05-21T22:35:12.664Z,4.97
2023-05-21T22:38:15.026Z,4.78
2023-05-21T22:41:17.421Z,3.80
2023-05-21T22:44:19.779Z,4.23
2023-05-21T22:47:23.981Z,4.07
2023-05-21T22:50:29.154Z,4.68
2023-05-21T22:53:32.392Z,3.97
2023-05-21T22:56:34.746Z,3.90
2023-05-21T22:59:37.112Z,4.10
2023-05-21T23:02:39.553Z,3.63
2023-05-21T23:05:42.009Z,3.70
2023-05-21T23:08:44.789Z,3.65
2023-05-21T23:11:47.162Z,3.97
2023-05-21T23:14:49.517Z,4.40
2023-05-21T23:17:51.952Z,4.22
2023-05-21T23:20:54.330Z,3.85
2023-05-21T23:23:56.757Z,3.95
2023-05-21T23:27:02.917Z,3.80
2023-05-21T23:30:06.011Z,4.20
2023-05-21T23:33:08.875Z,4.10
2023-05-21T23:36:11.347Z,4.20
2023-05-21T23:39:13.738Z,4.40
2023-05-21T23:42:16.679Z,4.13
2023-05-21T23:45:19.087Z,4.07
2023-05-21T23:48:21.545Z,4.47
2023-05-21T23:51:24.018Z,4.53
2023-05-21T23:54:26.360Z,4.77
2023-05-21T23:57:28.758Z,4.30
